Flight Track Log - Related Links

Times and Time Zones

All times are in EDT time to prevent confusion due to time zone crossing. See the RPA3228 flight status page for this flight to view local times or setup timezone preferences in your user account.

Time Position Orientation Groundspeed Altitude Reporting Facility
EDT Latitude Longitude Course Direction KTS MPH feet Rate Location/Type
Tue 10:26:30 AM 38.8814 -77.0636 333° Northwest 157 181 1,900  Level Washington Center
Tue 10:27:30 AM 38.9267 -77.1153 318° Northwest 228 262 3,800 2,628 Climbing Washington Center
Tue 10:28:00 AM 39.0812 -77.1572 339° North  Level FlightAware Approximate
Tue 10:28:31 AM 38.9842 -77.1778 320° Northwest 271 312 7,200  Level Washington Center
Tue 10:29:00 AM 39.1617 -77.2005 330° Northwest  Level FlightAware Approximate
Tue 10:29:32 AM 39.0397 -77.2458 316° Northwest 288 331 10,500  Level Washington Center
Tue 10:30:00 AM 39.2447 -77.2396 337° Northwest  Level FlightAware Approximate
Tue 10:30:30 AM 39.0467 -77.3422 275° West 294 338 11,000  Level Washington Center
Tue 10:31:00 AM 39.3265 -77.2850 337° Northwest  Level FlightAware Approximate
Tue 10:31:30 AM 39.0703 -77.4392 287° West 282 325 13,100  Level Washington Center
Tue 10:32:00 AM 39.4201 -77.3411 333° Northwest  Level FlightAware Approximate
Tue 10:32:32 AM 39.1317 -77.4994 323° Northwest 257 296 15,100  Level Washington Center
Tue 10:33:31 AM 39.2258 -77.4886 North 256 295 17,000 1,750 Climbing Washington Center
Tue 10:34:32 AM 39.3217 -77.4803 North 300 345 18,600 1,765 Climbing Washington Center
Tue 10:35:30 AM 39.4219 -77.4722 North 331 381 20,500 2,186 Climbing Washington Center
Tue 10:36:30 AM 39.5261 -77.4642 North 355 409 22,900 2,218 Climbing Washington Center
Tue 10:37:29 AM 39.6278 -77.4589 North 368 423 24,900 1,059 Climbing New York Center
Tue 10:38:29 AM 39.7303 -77.4550 North 395 455 25,000 559 Climbing New York Center
Tue 10:39:27 AM 39.8325 -77.4539 360° North 376 433 26,000 508 Climbing New York Center
Tue 10:40:27 AM 39.9331 -77.4797 349° North 371 427 26,000  Level New York Center
Tue 10:41:28 AM 40.0331 -77.5192 343° North 366 421 26,000  Level New York Center
Tue 10:42:29 AM 40.1353 -77.5564 344° North 372 428 26,000  Level New York Center
Tue 10:43:30 AM 40.2350 -77.5986 342° North 372 428 26,000  Level New York Center
Tue 10:44:27 AM 40.3328 -77.6383 343° North 372 428 26,000  Level New York Center
Tue 10:45:28 AM 40.4222 -77.6744 343° North 378 435 26,000  Level New York Center
Tue 10:46:27 AM 40.5222 -77.7144 343° North 373 429 26,000  Level New York Center
Tue 10:47:27 AM 40.6239 -77.7550 343° North 373 429 26,000  Level New York Center
Tue 10:49:48 AM 40.8642 -77.8539 343° North 381 438 26,000  Level Cleveland Center
Tue 10:50:48 AM 40.9633 -77.8939 343° North 375 432 26,000  Level Cleveland Center
Tue 10:51:48 AM 41.0536 -77.9314 343° North 370 426 26,000  Level Cleveland Center
Tue 10:52:48 AM 41.1528 -77.9717 343° North 370 426 26,000  Level Cleveland Center
Tue 10:53:48 AM 41.2517 -78.0144 342° North 370 426 26,000  Level Cleveland Center
Tue 10:54:48 AM 41.3525 -78.0547 343° North 370 426 26,000  Level Cleveland Center
Tue 10:55:48 AM 41.4514 -78.0953 343° North 370 426 26,000  Level Cleveland Center
Tue 10:56:48 AM 41.5503 -78.1358 343° North 370 426 26,000  Level Cleveland Center
Tue 10:57:48 AM 41.6533 -78.1792 343° North 370 426 26,000  Level Cleveland Center
Tue 10:58:48 AM 41.7503 -78.2203 342° North 370 426 26,000  Level Cleveland Center
Tue 10:59:48 AM 41.8533 -78.2639 343° North 370 426 26,000 -350 Level Cleveland Center
Tue 11:00:48 AM 41.9519 -78.3047 343° North 370 426 25,300 -2,000 Descending Cleveland Center
Tue 11:01:48 AM 42.0633 -78.3539 342° North 370 426 22,000 -3,000 Descending Cleveland Center
Tue 11:02:48 AM 42.1581 -78.3956 342° North 364 419 19,300 -2,600 Descending Cleveland Center
Tue 11:03:48 AM 42.2547 -78.4372 342° North 364 419 16,800 -2,550 Descending Cleveland Center
Tue 11:04:48 AM 42.3492 -78.4761 343° North 364 419 14,200 -2,550 Descending Cleveland Center
Tue 11:05:48 AM 42.4417 -78.5125 344° North 358 412 11,700 -1,800 Descending Cleveland Center
Tue 11:06:48 AM 42.5258 -78.5519 341° North 342 394 10,600 -1,450 Descending Cleveland Center
Tue 11:07:48 AM 42.6092 -78.5578 357° North 306 352 8,800 -1,700 Descending Cleveland Center
Tue 11:08:48 AM 42.6903 -78.5522 North 290 334 7,200 -1,600 Descending Cleveland Center
Tue 11:09:48 AM 42.7611 -78.5500 North 284 327 5,600 -1,600 Descending Cleveland Center
Tue 11:10:48 AM 42.8383 -78.5503 360° North 277 319 4,000 -1,150 Descending Cleveland Center
Tue 11:11:48 AM 42.9175 -78.5478 North 263 303 3,300 -800 Descending Cleveland Center
Tue 11:12:48 AM 42.9800 -78.5486 359° North 238 274 2,400 -347 Descending Cleveland Center
Tue 11:14:41 AM 43.0333 -78.6167 317° Northwest 172 198 2,300 -53 Descending Buffalo TRACON

Login

Don't have an account? Register now (free) for customized features, flight alerts, and more!